sensor_id;sensor_type;location;lat;lon;timestamp;P1;durP1;ratioP1;P2;durP2;ratioP2
12681;SDS011;6405;59.208;18.216;2023-04-25T00:00:20;5.13;;;3.43;;
12681;SDS011;6405;59.208;18.216;2023-04-25T00:02:45;4.57;;;3.23;;
12681;SDS011;6405;59.208;18.216;2023-04-25T00:05:11;4.63;;;3.77;;
12681;SDS011;6405;59.208;18.216;2023-04-25T00:07:39;5.20;;;3.70;;
12681;SDS011;6405;59.208;18.216;2023-04-25T00:10:07;5.60;;;3.37;;
12681;SDS011;6405;59.208;18.216;2023-04-25T00:12:34;4.00;;;3.27;;
12681;SDS011;6405;59.208;18.216;2023-04-25T00:15:01;5.73;;;3.60;;
12681;SDS011;6405;59.208;18.216;2023-04-25T00:17:26;3.73;;;3.37;;
12681;SDS011;6405;59.208;18.216;2023-04-25T00:19:52;4.73;;;3.20;;
12681;SDS011;6405;59.208;18.216;2023-04-25T00:22:18;4.30;;;3.27;;
12681;SDS011;6405;59.208;18.216;2023-04-25T00:24:44;3.93;;;3.47;;
12681;SDS011;6405;59.208;18.216;2023-04-25T00:27:10;3.90;;;3.27;;
12681;SDS011;6405;59.208;18.216;2023-04-25T00:29:36;7.13;;;3.03;;
12681;SDS011;6405;59.208;18.216;2023-04-25T00:32:01;3.57;;;2.97;;
12681;SDS011;6405;59.208;18.216;2023-04-25T00:34:29;5.67;;;3.03;;
12681;SDS011;6405;59.208;18.216;2023-04-25T00:36:54;3.87;;;3.10;;
12681;SDS011;6405;59.208;18.216;2023-04-25T00:39:20;3.30;;;2.50;;
12681;SDS011;6405;59.208;18.216;2023-04-25T00:41:45;6.43;;;3.60;;
12681;SDS011;6405;59.208;18.216;2023-04-25T00:44:11;6.20;;;3.43;;
12681;SDS011;6405;59.208;18.216;2023-04-25T00:46:38;4.07;;;2.83;;
12681;SDS011;6405;59.208;18.216;2023-04-25T00:49:04;5.23;;;3.20;;
12681;SDS011;6405;59.208;18.216;2023-04-25T00:51:30;3.37;;;2.83;;
12681;SDS011;6405;59.208;18.216;2023-04-25T00:53:57;2.73;;;2.33;;
12681;SDS011;6405;59.208;18.216;2023-04-25T00:56:25;3.60;;;1.90;;
12681;SDS011;6405;59.208;18.216;2023-04-25T00:58:52;5.50;;;2.20;;
12681;SDS011;6405;59.208;18.216;2023-04-25T01:01:22;4.00;;;2.30;;
12681;SDS011;6405;59.208;18.216;2023-04-25T01:03:48;3.40;;;1.73;;
12681;SDS011;6405;59.208;18.216;2023-04-25T01:06:15;2.73;;;1.70;;
12681;SDS011;6405;59.208;18.216;2023-04-25T01:08:41;2.17;;;1.73;;
12681;SDS011;6405;59.208;18.216;2023-04-25T01:11:07;2.73;;;1.70;;
12681;SDS011;6405;59.208;18.216;2023-04-25T01:13:33;2.70;;;1.37;;
12681;SDS011;6405;59.208;18.216;2023-04-25T01:16:00;2.07;;;1.50;;
12681;SDS011;6405;59.208;18.216;2023-04-25T01:18:26;4.10;;;1.57;;
12681;SDS011;6405;59.208;18.216;2023-04-25T01:20:52;3.60;;;1.50;;
12681;SDS011;6405;59.208;18.216;2023-04-25T01:23:19;3.33;;;1.60;;
12681;SDS011;6405;59.208;18.216;2023-04-25T01:25:45;2.87;;;1.53;;
12681;SDS011;6405;59.208;18.216;2023-04-25T01:28:12;4.90;;;1.40;;
12681;SDS011;6405;59.208;18.216;2023-04-25T01:30:38;2.17;;;1.40;;
12681;SDS011;6405;59.208;18.216;2023-04-25T01:33:05;2.40;;;1.63;;
12681;SDS011;6405;59.208;18.216;2023-04-25T01:35:33;2.37;;;1.30;;
12681;SDS011;6405;59.208;18.216;2023-04-25T01:37:59;4.17;;;1.30;;
12681;SDS011;6405;59.208;18.216;2023-04-25T01:40:24;2.50;;;1.40;;
12681;SDS011;6405;59.208;18.216;2023-04-25T01:42:51;1.17;;;1.07;;
12681;SDS011;6405;59.208;18.216;2023-04-25T01:45:17;1.50;;;1.37;;
12681;SDS011;6405;59.208;18.216;2023-04-25T01:47:43;1.33;;;1.20;;
12681;SDS011;6405;59.208;18.216;2023-04-25T01:50:13;2.67;;;1.30;;
12681;SDS011;6405;59.208;18.216;2023-04-25T01:52:40;2.73;;;1.20;;
12681;SDS011;6405;59.208;18.216;2023-04-25T01:55:06;1.47;;;1.20;;
12681;SDS011;6405;59.208;18.216;2023-04-25T01:57:31;1.43;;;1.20;;
12681;SDS011;6405;59.208;18.216;2023-04-25T01:59:59;1.23;;;1.10;;
12681;SDS011;6405;59.208;18.216;2023-04-25T02:02:26;1.53;;;1.03;;
12681;SDS011;6405;59.208;18.216;2023-04-25T02:04:52;1.03;;;0.93;;
12681;SDS011;6405;59.208;18.216;2023-04-25T02:07:19;1.13;;;1.03;;
12681;SDS011;6405;59.208;18.216;2023-04-25T02:09:45;2.50;;;1.23;;
12681;SDS011;6405;59.208;18.216;2023-04-25T02:12:11;1.73;;;1.10;;
12681;SDS011;6405;59.208;18.216;2023-04-25T02:14:36;1.63;;;1.20;;
12681;SDS011;6405;59.208;18.216;2023-04-25T02:17:02;1.57;;;1.10;;
12681;SDS011;6405;59.208;18.216;2023-04-25T02:19:28;1.30;;;0.87;;
12681;SDS011;6405;59.208;18.216;2023-04-25T02:21:53;1.27;;;0.90;;
12681;SDS011;6405;59.208;18.216;2023-04-25T02:24:19;1.50;;;1.10;;
12681;SDS011;6405;59.208;18.216;2023-04-25T02:26:45;1.23;;;0.93;;
12681;SDS011;6405;59.208;18.216;2023-04-25T02:29:11;1.03;;;0.80;;
12681;SDS011;6405;59.208;18.216;2023-04-25T02:31:37;1.23;;;1.10;;
12681;SDS011;6405;59.208;18.216;2023-04-25T02:34:03;1.53;;;1.07;;
12681;SDS011;6405;59.208;18.216;2023-04-25T02:36:29;1.60;;;0.93;;
12681;SDS011;6405;59.208;18.216;2023-04-25T02:38:59;1.40;;;0.90;;
12681;SDS011;6405;59.208;18.216;2023-04-25T02:41:25;3.10;;;1.10;;
12681;SDS011;6405;59.208;18.216;2023-04-25T02:43:51;1.20;;;1.00;;
12681;SDS011;6405;59.208;18.216;2023-04-25T02:46:17;1.80;;;1.10;;
12681;SDS011;6405;59.208;18.216;2023-04-25T02:48:43;1.30;;;1.10;;
12681;SDS011;6405;59.208;18.216;2023-04-25T02:51:08;1.37;;;1.10;;
12681;SDS011;6405;59.208;18.216;2023-04-25T02:53:34;2.40;;;1.23;;
12681;SDS011;6405;59.208;18.216;2023-04-25T02:56:00;1.40;;;1.00;;
12681;SDS011;6405;59.208;18.216;2023-04-25T02:58:26;2.60;;;1.20;;
12681;SDS011;6405;59.208;18.216;2023-04-25T03:00:52;1.80;;;1.60;;
12681;SDS011;6405;59.208;18.216;2023-04-25T03:03:18;1.77;;;1.00;;
12681;SDS011;6405;59.208;18.216;2023-04-25T03:05:48;1.23;;;1.13;;
12681;SDS011;6405;59.208;18.216;2023-04-25T03:08:15;2.70;;;1.63;;
12681;SDS011;6405;59.208;18.216;2023-04-25T03:10:41;1.53;;;1.20;;
12681;SDS011;6405;59.208;18.216;2023-04-25T03:13:07;3.97;;;1.57;;
12681;SDS011;6405;59.208;18.216;2023-04-25T03:15:33;3.60;;;1.50;;
12681;SDS011;6405;59.208;18.216;2023-04-25T03:17:58;1.67;;;1.57;;
12681;SDS011;6405;59.208;18.216;2023-04-25T03:20:24;1.40;;;1.30;;
12681;SDS011;6405;59.208;18.216;2023-04-25T03:22:50;1.73;;;1.50;;
12681;SDS011;6405;59.208;18.216;2023-04-25T03:25:15;1.67;;;1.43;;
12681;SDS011;6405;59.208;18.216;2023-04-25T03:27:41;3.43;;;1.50;;
12681;SDS011;6405;59.208;18.216;2023-04-25T03:30:07;3.33;;;1.80;;
12681;SDS011;6405;59.208;18.216;2023-04-25T03:32:33;2.33;;;1.60;;
12681;SDS011;6405;59.208;18.216;2023-04-25T03:34:59;2.60;;;1.73;;
12681;SDS011;6405;59.208;18.216;2023-04-25T03:37:24;4.83;;;3.53;;
12681;SDS011;6405;59.208;18.216;2023-04-25T03:39:50;5.67;;;3.93;;
12681;SDS011;6405;59.208;18.216;2023-04-25T03:42:16;8.33;;;4.20;;
12681;SDS011;6405;59.208;18.216;2023-04-25T03:44:41;4.80;;;4.30;;
12681;SDS011;6405;59.208;18.216;2023-04-25T03:47:07;7.47;;;3.93;;
12681;SDS011;6405;59.208;18.216;2023-04-25T03:49:33;5.57;;;3.87;;
12681;SDS011;6405;59.208;18.216;2023-04-25T03:51:59;8.57;;;7.27;;
12681;SDS011;6405;59.208;18.216;2023-04-25T03:54:25;7.23;;;6.47;;
12681;SDS011;6405;59.208;18.216;2023-04-25T03:56:51;7.83;;;5.37;;
12681;SDS011;6405;59.208;18.216;2023-04-25T03:59:16;6.20;;;4.53;;
12681;SDS011;6405;59.208;18.216;2023-04-25T04:01:42;5.20;;;3.67;;
12681;SDS011;6405;59.208;18.216;2023-04-25T04:04:07;6.47;;;4.40;;
12681;SDS011;6405;59.208;18.216;2023-04-25T04:06:33;5.97;;;4.10;;
12681;SDS011;6405;59.208;18.216;2023-04-25T04:08:59;4.20;;;3.10;;
12681;SDS011;6405;59.208;18.216;2023-04-25T04:11:24;11.93;;;8.00;;
12681;SDS011;6405;59.208;18.216;2023-04-25T04:13:51;8.77;;;4.90;;
12681;SDS011;6405;59.208;18.216;2023-04-25T04:16:16;6.67;;;5.10;;
12681;SDS011;6405;59.208;18.216;2023-04-25T04:18:42;6.80;;;4.77;;
12681;SDS011;6405;59.208;18.216;2023-04-25T04:21:07;10.50;;;6.57;;
12681;SDS011;6405;59.208;18.216;2023-04-25T04:23:33;5.73;;;4.33;;
12681;SDS011;6405;59.208;18.216;2023-04-25T04:25:59;4.97;;;3.60;;
12681;SDS011;6405;59.208;18.216;2023-04-25T04:28:25;9.00;;;4.00;;
12681;SDS011;6405;59.208;18.216;2023-04-25T04:30:51;6.90;;;4.90;;
12681;SDS011;6405;59.208;18.216;2023-04-25T04:33:17;8.47;;;4.53;;
12681;SDS011;6405;59.208;18.216;2023-04-25T04:35:46;5.73;;;3.87;;
12681;SDS011;6405;59.208;18.216;2023-04-25T04:38:12;5.87;;;4.30;;
12681;SDS011;6405;59.208;18.216;2023-04-25T04:40:40;9.27;;;5.00;;
12681;SDS011;6405;59.208;18.216;2023-04-25T04:43:09;5.93;;;4.20;;
12681;SDS011;6405;59.208;18.216;2023-04-25T04:45:35;7.23;;;4.80;;
12681;SDS011;6405;59.208;18.216;2023-04-25T04:48:05;10.17;;;5.00;;
12681;SDS011;6405;59.208;18.216;2023-04-25T04:50:31;9.33;;;5.30;;
12681;SDS011;6405;59.208;18.216;2023-04-25T04:52:57;12.97;;;5.90;;
12681;SDS011;6405;59.208;18.216;2023-04-25T04:55:23;8.57;;;4.83;;
12681;SDS011;6405;59.208;18.216;2023-04-25T04:57:49;10.10;;;6.80;;
12681;SDS011;6405;59.208;18.216;2023-04-25T05:00:15;11.30;;;6.90;;
12681;SDS011;6405;59.208;18.216;2023-04-25T05:02:41;7.90;;;5.43;;
12681;SDS011;6405;59.208;18.216;2023-04-25T05:05:07;9.77;;;6.10;;
12681;SDS011;6405;59.208;18.216;2023-04-25T05:07:33;11.23;;;6.77;;
12681;SDS011;6405;59.208;18.216;2023-04-25T05:09:59;8.07;;;5.60;;
12681;SDS011;6405;59.208;18.216;2023-04-25T05:12:24;10.70;;;6.23;;
12681;SDS011;6405;59.208;18.216;2023-04-25T05:14:50;9.23;;;6.40;;
12681;SDS011;6405;59.208;18.216;2023-04-25T05:17:16;13.47;;;6.30;;
12681;SDS011;6405;59.208;18.216;2023-04-25T05:19:41;9.50;;;6.30;;
12681;SDS011;6405;59.208;18.216;2023-04-25T05:22:07;7.30;;;4.70;;
12681;SDS011;6405;59.208;18.216;2023-04-25T05:24:33;6.97;;;4.67;;
12681;SDS011;6405;59.208;18.216;2023-04-25T05:26:58;8.40;;;5.00;;
12681;SDS011;6405;59.208;18.216;2023-04-25T05:29:24;13.97;;;5.90;;
12681;SDS011;6405;59.208;18.216;2023-04-25T05:31:49;7.73;;;4.43;;
12681;SDS011;6405;59.208;18.216;2023-04-25T05:34:15;6.27;;;4.63;;
12681;SDS011;6405;59.208;18.216;2023-04-25T05:36:41;8.27;;;5.60;;
12681;SDS011;6405;59.208;18.216;2023-04-25T05:39:07;6.70;;;4.37;;
12681;SDS011;6405;59.208;18.216;2023-04-25T05:41:33;8.67;;;4.77;;
12681;SDS011;6405;59.208;18.216;2023-04-25T05:43:59;5.57;;;3.77;;
12681;SDS011;6405;59.208;18.216;2023-04-25T05:46:25;5.37;;;3.50;;
12681;SDS011;6405;59.208;18.216;2023-04-25T05:48:50;5.20;;;3.80;;
12681;SDS011;6405;59.208;18.216;2023-04-25T05:51:16;9.93;;;4.47;;
12681;SDS011;6405;59.208;18.216;2023-04-25T05:53:43;6.33;;;3.83;;
12681;SDS011;6405;59.208;18.216;2023-04-25T05:56:09;5.07;;;3.37;;
12681;SDS011;6405;59.208;18.216;2023-04-25T05:58:35;6.00;;;3.00;;
12681;SDS011;6405;59.208;18.216;2023-04-25T06:01:01;8.93;;;3.80;;
12681;SDS011;6405;59.208;18.216;2023-04-25T06:03:27;5.50;;;3.20;;
12681;SDS011;6405;59.208;18.216;2023-04-25T06:05:53;4.03;;;3.00;;
12681;SDS011;6405;59.208;18.216;2023-04-25T06:08:19;5.87;;;2.97;;
12681;SDS011;6405;59.208;18.216;2023-04-25T06:10:44;5.13;;;3.53;;
12681;SDS011;6405;59.208;18.216;2023-04-25T06:13:10;5.17;;;3.63;;
12681;SDS011;6405;59.208;18.216;2023-04-25T06:15:36;6.37;;;3.90;;
12681;SDS011;6405;59.208;18.216;2023-04-25T06:18:02;5.30;;;3.50;;
12681;SDS011;6405;59.208;18.216;2023-04-25T06:20:28;6.77;;;3.97;;
12681;SDS011;6405;59.208;18.216;2023-04-25T06:22:53;5.77;;;3.63;;
12681;SDS011;6405;59.208;18.216;2023-04-25T06:25:19;4.30;;;3.10;;
12681;SDS011;6405;59.208;18.216;2023-04-25T06:27:45;5.57;;;3.57;;
12681;SDS011;6405;59.208;18.216;2023-04-25T06:30:11;4.60;;;3.23;;
12681;SDS011;6405;59.208;18.216;2023-04-25T06:32:40;3.67;;;2.70;;
12681;SDS011;6405;59.208;18.216;2023-04-25T06:35:06;6.10;;;3.30;;
12681;SDS011;6405;59.208;18.216;2023-04-25T06:37:32;4.20;;;3.10;;
12681;SDS011;6405;59.208;18.216;2023-04-25T06:39:57;4.93;;;3.17;;
12681;SDS011;6405;59.208;18.216;2023-04-25T06:42:23;4.80;;;3.43;;
12681;SDS011;6405;59.208;18.216;2023-04-25T06:44:48;4.30;;;3.00;;
12681;SDS011;6405;59.208;18.216;2023-04-25T06:47:14;4.07;;;2.93;;
12681;SDS011;6405;59.208;18.216;2023-04-25T06:49:40;4.97;;;3.30;;
12681;SDS011;6405;59.208;18.216;2023-04-25T06:52:06;5.33;;;3.37;;
12681;SDS011;6405;59.208;18.216;2023-04-25T06:54:32;6.20;;;3.40;;
12681;SDS011;6405;59.208;18.216;2023-04-25T06:56:58;4.73;;;2.87;;
12681;SDS011;6405;59.208;18.216;2023-04-25T06:59:25;5.30;;;3.47;;
12681;SDS011;6405;59.208;18.216;2023-04-25T07:01:51;4.10;;;3.10;;
12681;SDS011;6405;59.208;18.216;2023-04-25T07:04:17;4.40;;;3.10;;
12681;SDS011;6405;59.208;18.216;2023-04-25T07:06:42;5.30;;;3.03;;
12681;SDS011;6405;59.208;18.216;2023-04-25T07:09:08;6.17;;;3.57;;
12681;SDS011;6405;59.208;18.216;2023-04-25T07:11:37;4.57;;;3.27;;
12681;SDS011;6405;59.208;18.216;2023-04-25T07:14:03;4.40;;;3.33;;
12681;SDS011;6405;59.208;18.216;2023-04-25T07:16:29;5.13;;;3.20;;
12681;SDS011;6405;59.208;18.216;2023-04-25T07:18:55;4.10;;;3.40;;
12681;SDS011;6405;59.208;18.216;2023-04-25T07:21:20;6.17;;;3.60;;
12681;SDS011;6405;59.208;18.216;2023-04-25T07:23:46;4.80;;;3.30;;
12681;SDS011;6405;59.208;18.216;2023-04-25T07:26:12;4.43;;;3.20;;
12681;SDS011;6405;59.208;18.216;2023-04-25T07:28:38;5.83;;;3.20;;
12681;SDS011;6405;59.208;18.216;2023-04-25T07:31:04;4.70;;;3.00;;
12681;SDS011;6405;59.208;18.216;2023-04-25T07:33:30;6.13;;;3.43;;
12681;SDS011;6405;59.208;18.216;2023-04-25T07:35:56;4.47;;;3.27;;
12681;SDS011;6405;59.208;18.216;2023-04-25T07:38:21;4.73;;;3.13;;
12681;SDS011;6405;59.208;18.216;2023-04-25T07:40:48;4.37;;;3.20;;
12681;SDS011;6405;59.208;18.216;2023-04-25T07:43:14;5.97;;;3.60;;
12681;SDS011;6405;59.208;18.216;2023-04-25T07:45:44;5.70;;;3.43;;
12681;SDS011;6405;59.208;18.216;2023-04-25T07:48:11;6.53;;;4.47;;
12681;SDS011;6405;59.208;18.216;2023-04-25T07:50:41;6.43;;;4.13;;
12681;SDS011;6405;59.208;18.216;2023-04-25T07:53:06;5.90;;;3.80;;
12681;SDS011;6405;59.208;18.216;2023-04-25T07:55:32;5.03;;;3.73;;
12681;SDS011;6405;59.208;18.216;2023-04-25T07:57:58;5.90;;;3.57;;
12681;SDS011;6405;59.208;18.216;2023-04-25T08:00:23;5.73;;;3.77;;
12681;SDS011;6405;59.208;18.216;2023-04-25T08:02:49;5.93;;;3.43;;
12681;SDS011;6405;59.208;18.216;2023-04-25T08:05:16;4.73;;;3.60;;
12681;SDS011;6405;59.208;18.216;2023-04-25T08:07:42;9.10;;;6.53;;
12681;SDS011;6405;59.208;18.216;2023-04-25T08:10:08;8.73;;;6.17;;
12681;SDS011;6405;59.208;18.216;2023-04-25T08:12:34;6.07;;;4.73;;
12681;SDS011;6405;59.208;18.216;2023-04-25T08:15:00;6.87;;;4.07;;
12681;SDS011;6405;59.208;18.216;2023-04-25T08:17:26;8.80;;;6.93;;
12681;SDS011;6405;59.208;18.216;2023-04-25T08:19:52;6.83;;;4.90;;
12681;SDS011;6405;59.208;18.216;2023-04-25T08:22:17;6.83;;;5.10;;
12681;SDS011;6405;59.208;18.216;2023-04-25T08:24:43;6.93;;;3.90;;
12681;SDS011;6405;59.208;18.216;2023-04-25T08:27:09;9.57;;;4.17;;
12681;SDS011;6405;59.208;18.216;2023-04-25T08:29:36;7.70;;;4.13;;
12681;SDS011;6405;59.208;18.216;2023-04-25T08:32:02;6.03;;;4.93;;
12681;SDS011;6405;59.208;18.216;2023-04-25T08:34:27;6.93;;;4.83;;
12681;SDS011;6405;59.208;18.216;2023-04-25T08:36:53;9.33;;;5.20;;
12681;SDS011;6405;59.208;18.216;2023-04-25T08:39:19;7.63;;;5.50;;
12681;SDS011;6405;59.208;18.216;2023-04-25T08:41:45;7.50;;;4.70;;
12681;SDS011;6405;59.208;18.216;2023-04-25T08:44:11;10.47;;;5.10;;
12681;SDS011;6405;59.208;18.216;2023-04-25T08:46:38;6.83;;;4.30;;
12681;SDS011;6405;59.208;18.216;2023-04-25T08:49:07;7.67;;;4.60;;
12681;SDS011;6405;59.208;18.216;2023-04-25T08:51:34;8.60;;;5.20;;
12681;SDS011;6405;59.208;18.216;2023-04-25T08:54:11;8.33;;;5.43;;
12681;SDS011;6405;59.208;18.216;2023-04-25T08:56:38;10.07;;;5.67;;
12681;SDS011;6405;59.208;18.216;2023-04-25T08:59:08;9.43;;;5.80;;
12681;SDS011;6405;59.208;18.216;2023-04-25T09:01:35;8.83;;;5.90;;
12681;SDS011;6405;59.208;18.216;2023-04-25T09:04:01;9.37;;;5.77;;
12681;SDS011;6405;59.208;18.216;2023-04-25T09:06:28;7.80;;;5.40;;
12681;SDS011;6405;59.208;18.216;2023-04-25T09:08:55;11.60;;;7.20;;
12681;SDS011;6405;59.208;18.216;2023-04-25T09:11:30;10.20;;;5.73;;
12681;SDS011;6405;59.208;18.216;2023-04-25T09:14:18;9.47;;;6.03;;
12681;SDS011;6405;59.208;18.216;2023-04-25T09:19:22;8.27;;;6.43;;
12681;SDS011;6405;59.208;18.216;2023-04-25T09:21:50;9.73;;;6.80;;
12681;SDS011;6405;59.208;18.216;2023-04-25T09:27:09;9.27;;;5.97;;
12681;SDS011;6405;59.208;18.216;2023-04-25T09:29:36;7.57;;;5.03;;
12681;SDS011;6405;59.208;18.216;2023-04-25T09:34:42;7.03;;;5.03;;
12681;SDS011;6405;59.208;18.216;2023-04-25T09:37:09;8.53;;;5.10;;
12681;SDS011;6405;59.208;18.216;2023-04-25T09:39:36;6.60;;;5.13;;
12681;SDS011;6405;59.208;18.216;2023-04-25T09:42:03;8.07;;;5.43;;
12681;SDS011;6405;59.208;18.216;2023-04-25T09:44:29;7.87;;;5.40;;
12681;SDS011;6405;59.208;18.216;2023-04-25T09:46:55;5.97;;;5.03;;
12681;SDS011;6405;59.208;18.216;2023-04-25T09:49:22;7.50;;;5.23;;
12681;SDS011;6405;59.208;18.216;2023-04-25T09:51:57;6.15;;;5.15;;
12681;SDS011;6405;59.208;18.216;2023-04-25T09:54:24;6.97;;;5.20;;
12681;SDS011;6405;59.208;18.216;2023-04-25T09:56:51;5.27;;;4.70;;
12681;SDS011;6405;59.208;18.216;2023-04-25T09:59:21;5.73;;;4.53;;
12681;SDS011;6405;59.208;18.216;2023-04-25T10:01:49;4.60;;;4.07;;
12681;SDS011;6405;59.208;18.216;2023-04-25T10:04:19;4.70;;;4.07;;
12681;SDS011;6405;59.208;18.216;2023-04-25T10:06:51;4.20;;;3.80;;
12681;SDS011;6405;59.208;18.216;2023-04-25T10:09:21;5.60;;;4.53;;
12681;SDS011;6405;59.208;18.216;2023-04-25T10:11:50;4.57;;;3.73;;
12681;SDS011;6405;59.208;18.216;2023-04-25T10:14:17;4.43;;;3.70;;
12681;SDS011;6405;59.208;18.216;2023-04-25T10:16:44;4.20;;;3.80;;
12681;SDS011;6405;59.208;18.216;2023-04-25T10:19:10;4.60;;;3.80;;
12681;SDS011;6405;59.208;18.216;2023-04-25T10:21:44;4.60;;;3.97;;
12681;SDS011;6405;59.208;18.216;2023-04-25T10:24:19;4.73;;;3.93;;
12681;SDS011;6405;59.208;18.216;2023-04-25T10:26:45;6.13;;;4.63;;
12681;SDS011;6405;59.208;18.216;2023-04-25T10:29:12;3.80;;;3.50;;
12681;SDS011;6405;59.208;18.216;2023-04-25T10:31:47;6.07;;;3.80;;
12681;SDS011;6405;59.208;18.216;2023-04-25T10:34:13;3.23;;;2.83;;
12681;SDS011;6405;59.208;18.216;2023-04-25T10:36:40;3.10;;;2.80;;
12681;SDS011;6405;59.208;18.216;2023-04-25T10:39:06;3.30;;;3.00;;
12681;SDS011;6405;59.208;18.216;2023-04-25T10:41:56;4.57;;;2.77;;
12681;SDS011;6405;59.208;18.216;2023-04-25T10:44:23;4.50;;;3.30;;
12681;SDS011;6405;59.208;18.216;2023-04-25T10:46:51;3.10;;;2.67;;
12681;SDS011;6405;59.208;18.216;2023-04-25T10:52:19;2.50;;;2.20;;
12681;SDS011;6405;59.208;18.216;2023-04-25T10:54:51;4.20;;;3.00;;
12681;SDS011;6405;59.208;18.216;2023-04-25T10:57:28;2.70;;;2.37;;
12681;SDS011;6405;59.208;18.216;2023-04-25T11:02:30;2.87;;;2.40;;
12681;SDS011;6405;59.208;18.216;2023-04-25T11:04:56;3.87;;;3.33;;
12681;SDS011;6405;59.208;18.216;2023-04-25T11:07:37;2.73;;;2.40;;
12681;SDS011;6405;59.208;18.216;2023-04-25T11:10:08;2.97;;;2.67;;
12681;SDS011;6405;59.208;18.216;2023-04-25T11:12:34;3.50;;;3.10;;
12681;SDS011;6405;59.208;18.216;2023-04-25T11:15:01;3.40;;;2.90;;
12681;SDS011;6405;59.208;18.216;2023-04-25T11:17:28;4.27;;;3.70;;
12681;SDS011;6405;59.208;18.216;2023-04-25T11:19:54;3.93;;;3.53;;
12681;SDS011;6405;59.208;18.216;2023-04-25T11:22:21;5.93;;;3.73;;
12681;SDS011;6405;59.208;18.216;2023-04-25T11:24:47;3.77;;;3.23;;
12681;SDS011;6405;59.208;18.216;2023-04-25T11:27:13;4.10;;;3.37;;
12681;SDS011;6405;59.208;18.216;2023-04-25T11:29:40;3.73;;;3.40;;
12681;SDS011;6405;59.208;18.216;2023-04-25T11:32:06;4.13;;;3.40;;
12681;SDS011;6405;59.208;18.216;2023-04-25T11:34:33;2.83;;;2.60;;
12681;SDS011;6405;59.208;18.216;2023-04-25T11:36:59;3.77;;;3.43;;
12681;SDS011;6405;59.208;18.216;2023-04-25T11:39:26;3.43;;;3.10;;
12681;SDS011;6405;59.208;18.216;2023-04-25T11:41:53;3.50;;;3.20;;
12681;SDS011;6405;59.208;18.216;2023-04-25T11:44:19;3.97;;;3.57;;
12681;SDS011;6405;59.208;18.216;2023-04-25T11:46:46;4.40;;;3.67;;
12681;SDS011;6405;59.208;18.216;2023-04-25T11:49:13;6.07;;;3.80;;
12681;SDS011;6405;59.208;18.216;2023-04-25T11:51:42;4.73;;;4.20;;
12681;SDS011;6405;59.208;18.216;2023-04-25T11:54:10;4.57;;;4.13;;
12681;SDS011;6405;59.208;18.216;2023-04-25T11:56:36;5.33;;;4.53;;
12681;SDS011;6405;59.208;18.216;2023-04-25T11:59:03;5.33;;;4.47;;
12681;SDS011;6405;59.208;18.216;2023-04-25T12:01:31;4.93;;;4.43;;
12681;SDS011;6405;59.208;18.216;2023-04-25T12:03:58;5.20;;;4.70;;
12681;SDS011;6405;59.208;18.216;2023-04-25T12:06:39;4.07;;;3.67;;
12681;SDS011;6405;59.208;18.216;2023-04-25T12:09:10;4.67;;;4.27;;
12681;SDS011;6405;59.208;18.216;2023-04-25T12:11:45;3.83;;;3.43;;
12681;SDS011;6405;59.208;18.216;2023-04-25T12:14:12;3.63;;;3.33;;
12681;SDS011;6405;59.208;18.216;2023-04-25T12:16:47;4.50;;;3.50;;
12681;SDS011;6405;59.208;18.216;2023-04-25T12:19:15;4.67;;;3.63;;
12681;SDS011;6405;59.208;18.216;2023-04-25T12:21:41;4.33;;;3.53;;
12681;SDS011;6405;59.208;18.216;2023-04-25T12:24:11;4.70;;;4.20;;
12681;SDS011;6405;59.208;18.216;2023-04-25T12:29:22;9.33;;;5.57;;
12681;SDS011;6405;59.208;18.216;2023-04-25T12:31:49;4.20;;;3.80;;
12681;SDS011;6405;59.208;18.216;2023-04-25T12:34:16;5.07;;;3.63;;
12681;SDS011;6405;59.208;18.216;2023-04-25T12:36:42;4.57;;;3.90;;
12681;SDS011;6405;59.208;18.216;2023-04-25T12:39:08;4.63;;;3.67;;
12681;SDS011;6405;59.208;18.216;2023-04-25T12:41:47;5.37;;;3.50;;
12681;SDS011;6405;59.208;18.216;2023-04-25T12:44:13;4.87;;;3.83;;
12681;SDS011;6405;59.208;18.216;2023-04-25T12:46:39;5.87;;;3.80;;
12681;SDS011;6405;59.208;18.216;2023-04-25T12:49:06;4.53;;;3.80;;
12681;SDS011;6405;59.208;18.216;2023-04-25T12:51:33;4.83;;;3.60;;
12681;SDS011;6405;59.208;18.216;2023-04-25T12:54:00;4.20;;;3.60;;
12681;SDS011;6405;59.208;18.216;2023-04-25T12:56:29;4.50;;;3.33;;
12681;SDS011;6405;59.208;18.216;2023-04-25T12:58:55;4.27;;;3.40;;
12681;SDS011;6405;59.208;18.216;2023-04-25T13:01:21;3.83;;;3.37;;
12681;SDS011;6405;59.208;18.216;2023-04-25T13:03:47;5.50;;;4.03;;
12681;SDS011;6405;59.208;18.216;2023-04-25T13:06:14;4.93;;;3.20;;
12681;SDS011;6405;59.208;18.216;2023-04-25T13:08:40;5.13;;;4.03;;
12681;SDS011;6405;59.208;18.216;2023-04-25T13:11:07;6.37;;;4.17;;
12681;SDS011;6405;59.208;18.216;2023-04-25T13:13:32;5.97;;;4.13;;
12681;SDS011;6405;59.208;18.216;2023-04-25T13:16:00;6.17;;;4.20;;
12681;SDS011;6405;59.208;18.216;2023-04-25T13:18:30;5.50;;;3.93;;
12681;SDS011;6405;59.208;18.216;2023-04-25T13:20:57;6.07;;;3.87;;
12681;SDS011;6405;59.208;18.216;2023-04-25T13:23:24;5.73;;;4.03;;
12681;SDS011;6405;59.208;18.216;2023-04-25T13:25:50;6.47;;;4.30;;
12681;SDS011;6405;59.208;18.216;2023-04-25T13:28:16;5.43;;;4.13;;
12681;SDS011;6405;59.208;18.216;2023-04-25T13:30:42;5.37;;;3.97;;
12681;SDS011;6405;59.208;18.216;2023-04-25T13:33:08;4.67;;;3.30;;
12681;SDS011;6405;59.208;18.216;2023-04-25T13:35:35;3.97;;;3.27;;
12681;SDS011;6405;59.208;18.216;2023-04-25T13:38:02;5.23;;;3.80;;
12681;SDS011;6405;59.208;18.216;2023-04-25T13:40:27;5.80;;;3.67;;
12681;SDS011;6405;59.208;18.216;2023-04-25T13:42:54;5.47;;;3.57;;
12681;SDS011;6405;59.208;18.216;2023-04-25T13:45:20;4.93;;;3.60;;
12681;SDS011;6405;59.208;18.216;2023-04-25T13:47:46;5.87;;;4.17;;
12681;SDS011;6405;59.208;18.216;2023-04-25T13:50:12;6.20;;;4.60;;
12681;SDS011;6405;59.208;18.216;2023-04-25T13:52:38;6.70;;;4.70;;
12681;SDS011;6405;59.208;18.216;2023-04-25T13:55:04;6.83;;;4.63;;
12681;SDS011;6405;59.208;18.216;2023-04-25T13:57:32;6.27;;;4.20;;
12681;SDS011;6405;59.208;18.216;2023-04-25T13:59:58;5.03;;;4.10;;
12681;SDS011;6405;59.208;18.216;2023-04-25T14:02:25;5.07;;;3.50;;
12681;SDS011;6405;59.208;18.216;2023-04-25T14:04:51;5.50;;;3.87;;
12681;SDS011;6405;59.208;18.216;2023-04-25T14:07:16;7.10;;;3.73;;
12681;SDS011;6405;59.208;18.216;2023-04-25T14:09:44;4.83;;;3.73;;
12681;SDS011;6405;59.208;18.216;2023-04-25T14:12:10;7.90;;;4.03;;
12681;SDS011;6405;59.208;18.216;2023-04-25T14:14:36;7.83;;;4.33;;
12681;SDS011;6405;59.208;18.216;2023-04-25T14:17:02;5.17;;;3.40;;
12681;SDS011;6405;59.208;18.216;2023-04-25T14:19:28;4.33;;;2.90;;
12681;SDS011;6405;59.208;18.216;2023-04-25T14:21:54;3.87;;;2.60;;
12681;SDS011;6405;59.208;18.216;2023-04-25T14:24:20;4.20;;;2.80;;
12681;SDS011;6405;59.208;18.216;2023-04-25T14:26:46;8.60;;;2.37;;
12681;SDS011;6405;59.208;18.216;2023-04-25T14:29:11;5.07;;;3.10;;
12681;SDS011;6405;59.208;18.216;2023-04-25T14:31:37;2.53;;;1.97;;
12681;SDS011;6405;59.208;18.216;2023-04-25T14:34:04;4.60;;;2.10;;
12681;SDS011;6405;59.208;18.216;2023-04-25T14:36:32;2.90;;;2.33;;
12681;SDS011;6405;59.208;18.216;2023-04-25T14:38:58;2.37;;;1.90;;
12681;SDS011;6405;59.208;18.216;2023-04-25T14:41:24;3.87;;;2.17;;
12681;SDS011;6405;59.208;18.216;2023-04-25T14:43:51;2.53;;;1.83;;
12681;SDS011;6405;59.208;18.216;2023-04-25T14:46:18;2.27;;;1.83;;
12681;SDS011;6405;59.208;18.216;2023-04-25T14:48:44;4.17;;;2.60;;
12681;SDS011;6405;59.208;18.216;2023-04-25T14:51:10;3.23;;;2.70;;
12681;SDS011;6405;59.208;18.216;2023-04-25T14:53:36;3.23;;;2.23;;
12681;SDS011;6405;59.208;18.216;2023-04-25T14:56:02;2.50;;;2.30;;
12681;SDS011;6405;59.208;18.216;2023-04-25T14:58:28;2.87;;;2.20;;
12681;SDS011;6405;59.208;18.216;2023-04-25T15:00:54;3.20;;;2.23;;